Time;durP1;ratioP1;P1;durP2;ratioP2;P2;SDS_P1;SDS_P2;PMS_P1;PMS_P2;Temp;Humidity;BMP_temperature;BMP_pressure;BME280_temperature;BME280_humidity;BME280_pressure;Samples;Min_cycle;Max_cycle;Signal;HPM_P1;HPM_P2
2024/02/22 00:01:43;;;;;;;0.10;0.10;;;12.40;99.90;;;;;;4164251;28;20470;-65
2024/02/22 00:03:45;;;;;;;;;;;12.40;99.90;;;;;;4165162;28;20503;-59
2024/02/22 00:05:47;;;;;;;0.52;0.10;;;12.40;99.90;;;;;;4164451;28;20017;-59
2024/02/22 00:07:49;;;;;;;6.53;0.30;;;12.40;99.90;;;;;;4164412;28;20041;-59
2024/02/22 00:09:53;;;;;;;0.10;0.10;;;12.40;99.90;;;;;;4164237;28;20406;-59
2024/02/22 00:11:55;;;;;;;0.00;0.00;;;12.40;99.90;;;;;;4164358;28;20160;-61
2024/02/22 00:13:58;;;;;;;0.10;0.10;;;12.40;99.90;;;;;;4164151;28;20049;-59
2024/02/22 00:16:03;;;;;;;0.10;0.10;;;12.40;99.90;;;;;;4163978;28;20404;-59
2024/02/22 00:18:07;;;;;;;0.00;0.00;;;12.40;99.90;;;;;;4164112;28;20385;-61
2024/02/22 00:20:12;;;;;;;0.00;0.00;;;12.40;99.90;;;;;;4164145;28;20049;-59
2024/02/22 00:22:14;;;;;;;0.00;0.00;;;12.40;99.90;;;;;;4164231;28;20151;-59
2024/02/22 00:24:16;;;;;;;0.10;0.00;;;12.50;99.90;;;;;;4164246;28;20045;-59
2024/02/22 00:26:21;;;;;;;0.08;0.00;;;12.50;99.90;;;;;;4164075;28;20120;-60
2024/02/22 00:28:23;;;;;;;0.10;0.10;;;12.40;99.90;;;;;;4164365;28;20136;-59
2024/02/22 00:30:26;;;;;;;0.00;0.00;;;12.40;99.90;;;;;;4163726;28;20119;-59
2024/02/22 00:32:27;;;;;;;0.00;0.00;;;12.40;99.90;;;;;;4146511;28;20065;-58
2024/02/22 00:34:31;;;;;;;0.10;0.00;;;12.40;99.90;;;;;;4164120;28;20056;-60
2024/02/22 00:36:39;;;;;;;0.20;0.20;;;12.50;99.90;;;;;;4163693;28;20144;-60
2024/02/22 00:38:41;;;;;;;0.00;0.00;;;12.50;99.90;;;;;;4163823;28;20485;-60
2024/02/22 00:40:51;;;;;;;0.00;0.00;;;12.50;99.90;;;;;;4163477;28;20493;-60
2024/02/22 00:42:53;;;;;;;0.00;0.00;;;12.50;99.90;;;;;;4163854;28;20079;-60
2024/02/22 00:44:56;;;;;;;0.10;0.10;;;12.50;99.90;;;;;;4163930;28;20463;-59
2024/02/22 00:46:58;;;;;;;0.00;0.00;;;12.50;99.90;;;;;;4146597;28;20058;-59
2024/02/22 00:49:00;;;;;;;0.30;0.00;;;12.50;99.90;;;;;;4164129;28;20086;-59
2024/02/22 00:51:03;;;;;;;0.10;0.00;;;12.50;99.90;;;;;;4164048;28;20548;-59
2024/02/22 00:53:06;;;;;;;0.08;0.08;;;12.60;99.90;;;;;;4163694;28;20051;-60
2024/02/22 00:55:08;;;;;;;0.15;0.15;;;12.60;99.90;;;;;;4163917;28;20042;-59
2024/02/22 00:57:11;;;;;;;0.00;0.00;;;12.60;99.90;;;;;;4163775;28;20129;-59
2024/02/22 00:59:12;;;;;;;0.03;0.03;;;12.50;99.90;;;;;;4163755;28;20474;-60
2024/02/22 01:01:16;;;;;;;0.00;0.00;;;12.50;99.90;;;;;;4163646;28;20125;-64
2024/02/22 01:03:18;;;;;;;0.77;0.25;;;12.50;99.90;;;;;;4163724;28;20108;-60
2024/02/22 01:05:20;;;;;;;0.10;0.00;;;12.50;99.90;;;;;;4163998;28;20162;-60
2024/02/22 01:07:24;;;;;;;0.10;0.10;;;12.50;99.90;;;;;;4163610;28;20711;-60
2024/02/22 01:09:26;;;;;;;0.40;0.40;;;12.60;99.90;;;;;;4163685;28;20056;-59
2024/02/22 01:11:28;;;;;;;0.57;0.43;;;12.50;99.90;;;;;;4146189;28;20191;-60
2024/02/22 01:13:30;;;;;;;0.10;0.10;;;12.60;99.90;;;;;;4145740;28;20096;-59
2024/02/22 01:15:32;;;;;;;0.00;0.00;;;12.60;99.90;;;;;;4163682;28;20045;-59
2024/02/22 01:17:38;;;;;;;0.00;0.00;;;12.60;99.90;;;;;;4163775;28;20048;-59
2024/02/22 01:19:40;;;;;;;0.10;0.00;;;12.60;99.90;;;;;;4163700;28;20409;-60
2024/02/22 01:21:42;;;;;;;0.00;0.00;;;12.60;99.90;;;;;;4163818;28;20046;-58
2024/02/22 01:23:45;;;;;;;0.00;0.00;;;12.60;99.90;;;;;;4164021;28;20504;-59
2024/02/22 01:25:47;;;;;;;0.00;0.00;;;12.60;99.90;;;;;;4163663;28;20407;-59
2024/02/22 01:27:50;;;;;;;0.00;0.00;;;12.60;99.90;;;;;;4163446;28;20111;-59
2024/02/22 01:29:52;;;;;;;0.28;0.28;;;12.60;99.90;;;;;;4163715;28;20528;-58
2024/02/22 01:31:54;;;;;;;0.00;0.00;;;12.70;99.90;;;;;;4163519;28;20507;-58
2024/02/22 01:33:57;;;;;;;0.00;0.00;;;12.70;99.90;;;;;;4163427;28;20088;-58
2024/02/22 01:35:59;;;;;;;0.10;0.10;;;12.70;99.90;;;;;;4163816;28;20088;-58
2024/02/22 01:38:01;;;;;;;0.00;0.00;;;12.70;99.90;;;;;;4163344;28;20097;-62
2024/02/22 01:40:08;;;;;;;0.10;0.10;;;12.70;99.90;;;;;;4163525;28;20045;-62
2024/02/22 01:42:10;;;;;;;0.00;0.00;;;12.70;99.90;;;;;;4163217;28;20050;-60
2024/02/22 01:44:12;;;;;;;0.10;0.00;;;12.80;99.90;;;;;;4163885;28;20469;-64
2024/02/22 01:46:15;;;;;;;0.93;0.10;;;12.80;99.90;;;;;;4163656;28;20560;-59
2024/02/22 01:48:17;;;;;;;0.00;0.00;;;12.70;99.90;;;;;;4163612;28;20046;-61
2024/02/22 01:50:20;;;;;;;0.10;0.00;;;12.80;99.90;;;;;;4163573;28;20132;-59
2024/02/22 01:52:22;;;;;;;0.00;0.00;;;12.80;99.90;;;;;;4165658;28;20060;-59
2024/02/22 01:54:25;;;;;;;2.33;0.38;;;12.80;99.90;;;;;;4166688;28;20049;-58
2024/02/22 01:56:29;;;;;;;0.00;0.00;;;12.80;99.90;;;;;;4166195;28;20042;-60
2024/02/22 01:58:33;;;;;;;0.00;0.00;;;12.80;99.90;;;;;;4166783;28;20045;-60
2024/02/22 02:00:36;;;;;;;0.00;0.00;;;12.90;99.90;;;;;;4149431;28;20467;-74
2024/02/22 02:02:39;;;;;;;0.00;0.00;;;12.80;99.90;;;;;;4166532;28;20474;-65
2024/02/22 02:04:42;;;;;;;0.00;0.00;;;12.80;99.90;;;;;;4166827;28;20453;-59
2024/02/22 02:06:45;;;;;;;0.10;0.00;;;12.80;99.90;;;;;;4166749;28;20049;-59
2024/02/22 02:08:48;;;;;;;0.00;0.00;;;12.80;99.90;;;;;;4149232;28;20072;-59
2024/02/22 02:10:50;;;;;;;0.10;0.10;;;12.80;99.90;;;;;;4166304;28;20049;-59
2024/02/22 02:13:01;;;;;;;0.00;0.00;;;12.90;99.90;;;;;;4166645;28;20104;-64
2024/02/22 02:15:03;;;;;;;0.00;0.00;;;12.90;99.90;;;;;;4166994;28;20409;-59
2024/02/22 02:17:05;;;;;;;1.55;0.00;;;12.90;99.90;;;;;;4166415;28;20045;-68
2024/02/22 02:19:10;;;;;;;0.08;0.00;;;12.90;99.90;;;;;;4166555;28;20431;-59
2024/02/22 02:21:23;;;;;;;0.10;0.10;;;12.90;99.90;;;;;;4167018;28;20048;-60
2024/02/22 02:23:33;;;;;;;0.00;0.00;;;12.90;99.90;;;;;;4166613;28;20156;-62
2024/02/22 02:25:36;;;;;;;0.00;0.00;;;12.90;99.90;;;;;;4165989;28;20081;-59
2024/02/22 02:27:39;;;;;;;0.43;0.10;;;12.90;99.90;;;;;;4166316;28;20050;-59
2024/02/22 02:29:43;;;;;;;0.00;0.00;;;12.80;99.90;;;;;;4166178;28;20052;-60
2024/02/22 02:31:46;;;;;;;0.03;0.03;;;12.90;99.90;;;;;;4166086;28;20523;-59
2024/02/22 02:33:48;;;;;;;0.00;0.00;;;12.80;99.90;;;;;;4165680;28;20135;-59
2024/02/22 02:35:52;;;;;;;0.03;0.03;;;12.90;99.90;;;;;;4165903;28;20049;-59
2024/02/22 02:37:57;;;;;;;0.00;0.00;;;12.90;99.90;;;;;;4165450;28;20049;-58
2024/02/22 02:40:00;;;;;;;0.13;0.10;;;12.90;99.90;;;;;;4165695;28;20041;-59
2024/02/22 02:42:05;;;;;;;0.00;0.00;;;12.90;99.90;;;;;;4165866;28;20041;-59
2024/02/22 02:44:07;;;;;;;0.00;0.00;;;12.90;99.90;;;;;;4165629;28;20095;-59
2024/02/22 02:46:09;;;;;;;0.10;0.10;;;12.80;99.90;;;;;;4165486;28;20114;-59
2024/02/22 02:48:11;;;;;;;0.00;0.00;;;12.80;99.90;;;;;;4165687;28;20049;-59
2024/02/22 02:50:14;;;;;;;0.00;0.00;;;12.80;99.90;;;;;;4165454;28;20053;-60
2024/02/22 02:52:16;;;;;;;0.00;0.00;;;12.90;99.90;;;;;;4165426;28;20050;-59
2024/02/22 02:54:18;;;;;;;0.00;0.00;;;12.90;99.90;;;;;;4165171;28;20045;-59
2024/02/22 02:56:20;;;;;;;0.05;0.00;;;12.90;99.90;;;;;;4165505;28;20049;-59
2024/02/22 02:58:25;;;;;;;0.00;0.00;;;12.90;99.90;;;;;;4165556;28;20060;-59
2024/02/22 03:00:27;;;;;;;0.00;0.00;;;12.90;99.90;;;;;;4165536;28;20056;-58
2024/02/22 03:02:29;;;;;;;0.00;0.00;;;12.90;99.90;;;;;;4165219;28;20049;-59
2024/02/22 03:04:31;;;;;;;0.00;0.00;;;12.90;99.90;;;;;;4164963;28;20049;-59
2024/02/22 03:06:33;;;;;;;0.00;0.00;;;13.00;99.90;;;;;;4165199;28;20048;-59
2024/02/22 03:08:35;;;;;;;0.00;0.00;;;13.00;99.90;;;;;;4164731;28;20709;-62
2024/02/22 03:10:37;;;;;;;0.10;0.00;;;12.90;99.90;;;;;;4165312;28;20137;-59
2024/02/22 03:12:39;;;;;;;0.10;0.10;;;12.90;99.90;;;;;;4165401;28;20480;-59
2024/02/22 03:14:43;;;;;;;0.00;0.00;;;12.90;99.90;;;;;;4165033;28;20548;-59
2024/02/22 03:16:45;;;;;;;0.00;0.00;;;12.90;99.90;;;;;;4164984;28;20053;-58
2024/02/22 03:18:47;;;;;;;0.00;0.00;;;13.00;99.90;;;;;;4147503;28;20092;-60
2024/02/22 03:20:49;;;;;;;0.00;0.00;;;13.00;99.90;;;;;;4164980;28;20048;-58
2024/02/22 03:22:51;;;;;;;0.00;0.00;;;13.00;99.90;;;;;;4164496;28;20046;-58
2024/02/22 03:24:54;;;;;;;0.00;0.00;;;13.00;99.90;;;;;;4164942;28;20045;-59
2024/02/22 03:26:56;;;;;;;0.32;0.05;;;13.00;99.90;;;;;;4164949;28;20056;-59
2024/02/22 03:28:58;;;;;;;0.00;0.00;;;12.90;99.90;;;;;;4147492;28;20082;-60
2024/02/22 03:31:02;;;;;;;0.00;0.00;;;13.00;99.90;;;;;;4164967;28;20054;-65
2024/02/22 03:33:04;;;;;;;0.10;0.10;;;12.90;99.90;;;;;;4164931;28;20404;-58
2024/02/22 03:35:08;;;;;;;0.00;0.00;;;12.90;99.90;;;;;;4165172;28;20636;-59
2024/02/22 03:37:12;;;;;;;0.10;0.00;;;13.00;99.90;;;;;;4147102;28;20520;-60
2024/02/22 03:39:14;;;;;;;0.00;0.00;;;13.00;99.90;;;;;;4165080;28;20468;-57
2024/02/22 03:41:22;;;;;;;0.00;0.00;;;13.00;99.90;;;;;;4165282;28;20081;-61
2024/02/22 03:43:24;;;;;;;0.00;0.00;;;12.90;99.90;;;;;;4164924;28;20054;-59
2024/02/22 03:45:26;;;;;;;1.35;0.00;;;12.90;99.90;;;;;;4165112;28;20046;-59
2024/02/22 03:47:30;;;;;;;0.00;0.00;;;12.90;99.90;;;;;;4164600;28;20408;-59
2024/02/22 03:49:32;;;;;;;0.00;0.00;;;13.00;99.90;;;;;;4164640;28;20051;-59
2024/02/22 03:51:34;;;;;;;0.00;0.00;;;12.90;99.90;;;;;;4164341;28;20460;-57
2024/02/22 03:53:36;;;;;;;0.00;0.00;;;13.00;99.90;;;;;;4164664;28;20497;-58
2024/02/22 03:55:38;;;;;;;0.00;0.00;;;13.00;99.90;;;;;;4164698;28;20049;-59
2024/02/22 03:57:42;;;;;;;0.00;0.00;;;13.00;99.90;;;;;;4164599;28;20045;-58
2024/02/22 03:59:44;;;;;;;0.00;0.00;;;13.00;99.90;;;;;;4164456;28;20041;-58
2024/02/22 04:01:46;;;;;;;0.00;0.00;;;13.00;99.90;;;;;;4164637;28;20073;-60
2024/02/22 04:03:49;;;;;;;0.00;0.00;;;13.00;99.90;;;;;;4146894;28;20061;-58
2024/02/22 04:05:52;;;;;;;0.00;0.00;;;13.10;99.90;;;;;;4164540;28;20049;-59
2024/02/22 04:07:54;;;;;;;0.00;0.00;;;13.10;99.90;;;;;;4164091;28;20045;-59
2024/02/22 04:09:56;;;;;;;0.00;0.00;;;13.10;99.90;;;;;;4164613;28;20435;-59
2024/02/22 04:11:58;;;;;;;0.08;0.08;;;13.10;99.90;;;;;;4147701;28;20141;-63
2024/02/22 04:14:00;;;;;;;0.40;0.03;;;13.10;99.90;;;;;;4165362;28;20041;-69
2024/02/22 04:16:03;;;;;;;0.00;0.00;;;13.10;99.90;;;;;;4164430;28;20103;-64
2024/02/22 04:18:05;;;;;;;0.00;0.00;;;13.10;99.90;;;;;;4165330;28;20405;-58
2024/02/22 04:20:09;;;;;;;0.00;0.00;;;13.00;99.90;;;;;;4164202;28;20123;-58
2024/02/22 04:22:11;;;;;;;0.05;0.00;;;13.10;99.90;;;;;;4163907;28;20045;-58
2024/02/22 04:24:13;;;;;;;0.00;0.00;;;13.00;99.90;;;;;;4164350;28;20147;-59
2024/02/22 04:26:15;;;;;;;0.00;0.00;;;13.00;99.90;;;;;;4164342;28;20049;-61
2024/02/22 04:28:18;;;;;;;0.10;0.00;;;13.00;99.90;;;;;;4164220;28;20048;-59
2024/02/22 04:30:21;;;;;;;0.00;0.00;;;13.10;99.90;;;;;;4146591;28;20046;-60
2024/02/22 04:32:23;;;;;;;0.05;0.00;;;13.10;99.90;;;;;;4163856;28;20047;-58
2024/02/22 04:34:25;;;;;;;0.00;0.00;;;13.10;99.90;;;;;;4164432;28;20115;-60
2024/02/22 04:36:28;;;;;;;0.00;0.00;;;13.10;99.90;;;;;;4163753;28;20049;-59
2024/02/22 04:38:30;;;;;;;0.00;0.00;;;13.10;99.90;;;;;;4164026;28;20129;-59
2024/02/22 04:40:32;;;;;;;0.47;0.30;;;13.00;99.90;;;;;;4164227;28;20049;-59
2024/02/22 04:42:35;;;;;;;0.00;0.00;;;13.10;99.90;;;;;;4164060;28;20077;-60
2024/02/22 04:44:37;;;;;;;0.00;0.00;;;13.10;99.90;;;;;;4164211;28;20060;-59
2024/02/22 04:46:39;;;;;;;0.00;0.00;;;13.00;99.90;;;;;;4163741;28;20446;-61
2024/02/22 04:48:42;;;;;;;0.00;0.00;;;13.00;99.90;;;;;;4164123;28;20045;-59
2024/02/22 04:50:45;;;;;;;0.00;0.00;;;12.90;99.90;;;;;;4163381;28;20045;-58
2024/02/22 04:52:48;;;;;;;0.00;0.00;;;13.00;99.90;;;;;;4146145;28;20080;-58
2024/02/22 04:54:50;;;;;;;0.20;0.10;;;13.00;99.90;;;;;;4146260;28;20050;-58
2024/02/22 04:56:53;;;;;;;0.75;0.10;;;12.90;99.90;;;;;;4164010;28;20515;-60
2024/02/22 04:58:55;;;;;;;0.00;0.00;;;12.90;99.90;;;;;;4163870;28;20095;-60
2024/02/22 05:00:57;;;;;;;0.60;0.20;;;13.00;99.90;;;;;;4146287;28;20054;-62
2024/02/22 05:02:59;;;;;;;0.10;0.10;;;13.00;99.90;;;;;;4164087;28;20429;-59
2024/02/22 05:05:03;;;;;;;0.00;0.00;;;13.10;99.90;;;;;;4163604;28;20045;-62
2024/02/22 05:07:05;;;;;;;0.00;0.00;;;13.00;99.90;;;;;;4164258;28;20092;-63
2024/02/22 05:09:13;;;;;;;0.00;0.00;;;13.10;99.90;;;;;;4164231;28;20477;-57
2024/02/22 05:11:15;;;;;;;0.00;0.00;;;13.10;99.90;;;;;;4163989;28;20133;-62
2024/02/22 05:13:18;;;;;;;0.10;0.10;;;13.10;99.90;;;;;;4146347;28;20521;-58
2024/02/22 05:15:21;;;;;;;0.00;0.00;;;13.10;99.90;;;;;;4164056;28;20053;-61
2024/02/22 05:17:23;;;;;;;0.00;0.00;;;13.00;99.90;;;;;;4163806;28;20091;-59
2024/02/22 05:19:25;;;;;;;0.00;0.00;;;13.00;99.90;;;;;;4163632;28;20056;-59
2024/02/22 05:21:29;;;;;;;0.00;0.00;;;13.00;99.90;;;;;;4163665;28;20046;-57
2024/02/22 05:23:31;;;;;;;0.32;0.10;;;13.00;99.90;;;;;;4163453;28;20045;-61
2024/02/22 05:25:35;;;;;;;0.08;0.00;;;13.00;99.90;;;;;;4163518;28;20045;-59
2024/02/22 05:27:37;;;;;;;0.00;0.00;;;13.00;99.90;;;;;;4166385;28;20136;-58
2024/02/22 05:29:41;;;;;;;0.00;0.00;;;13.00;99.90;;;;;;4167017;28;20127;-59
2024/02/22 05:31:43;;;;;;;0.00;0.00;;;13.00;99.90;;;;;;4166994;28;20584;-59
2024/02/22 05:33:45;;;;;;;0.00;0.00;;;13.00;99.90;;;;;;4166177;28;20053;-59
2024/02/22 05:35:48;;;;;;;0.00;0.00;;;13.00;99.90;;;;;;4166946;28;20103;-59
2024/02/22 05:37:50;;;;;;;0.00;0.00;;;13.00;99.90;;;;;;4148808;28;20046;-60
2024/02/22 05:39:52;;;;;;;0.05;0.00;;;13.00;99.90;;;;;;4166629;28;20163;-59
2024/02/22 05:41:55;;;;;;;0.00;0.00;;;13.10;99.90;;;;;;4166722;28;20137;-59
2024/02/22 05:43:57;;;;;;;0.00;0.00;;;13.10;99.90;;;;;;4166772;28;20059;-59
2024/02/22 05:46:00;;;;;;;0.00;0.00;;;13.10;99.90;;;;;;4166732;28;20056;-59
2024/02/22 05:48:02;;;;;;;0.00;0.00;;;13.10;99.90;;;;;;4166249;28;20544;-61
2024/02/22 05:50:07;;;;;;;0.03;0.00;;;13.10;99.90;;;;;;4167226;28;20417;-62
2024/02/22 05:52:11;;;;;;;1.35;0.65;;;13.10;99.90;;;;;;4167150;28;20071;-65
2024/02/22 05:54:14;;;;;;;0.38;0.38;;;13.10;99.90;;;;;;4166964;28;20077;-65
2024/02/22 05:56:16;;;;;;;0.00;0.00;;;13.10;99.90;;;;;;4166975;28;20107;-60
2024/02/22 05:58:20;;;;;;;0.00;0.00;;;13.10;99.90;;;;;;4166469;28;20045;-62
2024/02/22 06:00:24;;;;;;;0.30;0.22;;;13.20;99.90;;;;;;4166936;28;20073;-59
2024/02/22 06:02:26;;;;;;;0.30;0.22;;;13.20;99.90;;;;;;4166583;28;20053;-63
2024/02/22 06:04:28;;;;;;;0.00;0.00;;;13.20;99.90;;;;;;4166753;28;20095;-60
2024/02/22 06:06:30;;;;;;;0.00;0.00;;;13.10;99.90;;;;;;4166906;28;20436;-59
2024/02/22 06:08:33;;;;;;;0.00;0.00;;;13.20;99.90;;;;;;4167082;28;20045;-60
2024/02/22 06:10:36;;;;;;;0.17;0.17;;;13.20;99.90;;;;;;4166666;28;20091;-62
2024/02/22 06:12:40;;;;;;;0.00;0.00;;;13.20;99.90;;;;;;4166559;28;20471;-63
2024/02/22 06:14:47;;;;;;;0.00;0.00;;;13.30;99.90;;;;;;4166319;28;20045;-62
2024/02/22 06:16:49;;;;;;;0.08;0.00;;;13.20;99.90;;;;;;4165858;28;20049;-59
2024/02/22 06:18:51;;;;;;;0.10;0.00;;;13.30;99.90;;;;;;4166115;28;20081;-59
2024/02/22 06:20:53;;;;;;;0.00;0.00;;;13.30;99.90;;;;;;4166186;28;20192;-59
2024/02/22 06:22:55;;;;;;;0.00;0.00;;;13.20;99.90;;;;;;4166020;28;20100;-66
2024/02/22 06:24:57;;;;;;;0.00;0.00;;;13.20;99.90;;;;;;4165852;28;20045;-58
2024/02/22 06:26:59;;;;;;;0.00;0.00;;;13.20;99.90;;;;;;4166126;28;20440;-58
2024/02/22 06:29:02;;;;;;;0.20;0.20;;;13.20;99.90;;;;;;4165907;28;20073;-57
2024/02/22 06:31:05;;;;;;;0.15;0.13;;;13.20;99.90;;;;;;4165699;28;20472;-59
2024/02/22 06:33:08;;;;;;;0.55;0.00;;;13.10;99.90;;;;;;4165821;28;20054;-63
2024/02/22 06:35:10;;;;;;;0.00;0.00;;;13.10;99.90;;;;;;4166082;28;20124;-58
2024/02/22 06:37:12;;;;;;;0.20;0.20;;;13.10;99.90;;;;;;4165631;28;20045;-58
2024/02/22 06:39:14;;;;;;;0.00;0.00;;;13.10;99.90;;;;;;4165096;28;20049;-58
2024/02/22 06:41:18;;;;;;;0.00;0.00;;;13.20;99.90;;;;;;4165875;28;20045;-58
2024/02/22 06:43:20;;;;;;;0.00;0.00;;;13.20;99.90;;;;;;4147917;28;20077;-63
2024/02/22 06:45:24;;;;;;;0.00;0.00;;;13.20;99.90;;;;;;4165729;28;20045;-59
2024/02/22 06:47:28;;;;;;;0.00;0.00;;;13.10;99.90;;;;;;4165254;28;20489;-57
2024/02/22 06:49:31;;;;;;;0.00;0.00;;;13.20;99.90;;;;;;4165707;28;20053;-58
2024/02/22 06:51:35;;;;;;;0.00;0.00;;;13.10;99.90;;;;;;4165748;28;20076;-59
2024/02/22 06:53:38;;;;;;;0.00;0.00;;;13.20;99.90;;;;;;4165329;28;20057;-57
2024/02/22 06:55:40;;;;;;;0.00;0.00;;;13.20;99.90;;;;;;4148128;28;20049;-58
2024/02/22 06:57:42;;;;;;;0.00;0.00;;;13.20;99.90;;;;;;4165383;28;20461;-58
2024/02/22 06:59:44;;;;;;;0.95;0.10;;;13.20;99.90;;;;;;4165432;28;20128;-58
2024/02/22 07:01:46;;;;;;;0.00;0.00;;;13.20;99.90;;;;;;4164941;28;20091;-57
2024/02/22 07:03:50;;;;;;;0.00;0.00;;;13.20;99.90;;;;;;4165270;28;20049;-59
2024/02/22 07:05:52;;;;;;;0.10;0.00;;;13.20;99.90;;;;;;4165399;28;20120;-59
2024/02/22 07:07:54;;;;;;;0.00;0.00;;;13.20;99.90;;;;;;4165307;28;20505;-59
2024/02/22 07:09:56;;;;;;;0.00;0.00;;;13.20;99.90;;;;;;4165259;28;20412;-58
2024/02/22 07:11:59;;;;;;;0.00;0.00;;;13.30;99.90;;;;;;4165395;28;20497;-57
2024/02/22 07:14:01;;;;;;;0.00;0.00;;;13.30;99.90;;;;;;4165266;28;20045;-57
2024/02/22 07:16:04;;;;;;;0.00;0.00;;;13.30;99.90;;;;;;4164788;28;20056;-58
2024/02/22 07:18:06;;;;;;;0.10;0.10;;;13.20;99.90;;;;;;4165010;28;20073;-58
2024/02/22 07:20:11;;;;;;;0.10;0.00;;;13.20;99.90;;;;;;4165183;28;20049;-58
2024/02/22 07:22:13;;;;;;;0.00;0.00;;;13.30;99.90;;;;;;4165220;28;20145;-58
2024/02/22 07:24:17;;;;;;;0.10;0.10;;;13.30;99.90;;;;;;4165151;28;20132;-59
2024/02/22 07:26:20;;;;;;;0.00;0.00;;;13.30;99.90;;;;;;4165013;28;20046;-60
2024/02/22 07:28:22;;;;;;;0.00;0.00;;;13.30;99.90;;;;;;4165186;28;20373;-58
2024/02/22 07:30:27;;;;;;;0.08;0.08;;;13.20;99.90;;;;;;4164462;28;20049;-59
2024/02/22 07:32:29;;;;;;;0.10;0.10;;;13.30;99.90;;;;;;4164875;28;20089;-60
2024/02/22 07:34:31;;;;;;;0.00;0.00;;;13.30;99.90;;;;;;4164723;28;20140;-59
2024/02/22 07:36:35;;;;;;;2.25;0.52;;;13.30;99.90;;;;;;4164919;28;20129;-60
2024/02/22 07:38:38;;;;;;;0.10;0.00;;;13.30;99.90;;;;;;4165227;28;20045;-59
2024/02/22 07:40:39;;;;;;;0.00;0.00;;;13.20;99.90;;;;;;4165372;28;20822;-59
2024/02/22 07:42:42;;;;;;;0.00;0.00;;;13.30;99.90;;;;;;4164988;28;20125;-58
2024/02/22 07:44:44;;;;;;;0.20;0.20;;;13.30;99.90;;;;;;4164448;28;20476;-62
2024/02/22 07:46:46;;;;;;;0.10;0.10;;;13.30;99.90;;;;;;4164617;28;20232;-59
2024/02/22 07:48:48;;;;;;;0.00;0.00;;;13.20;99.90;;;;;;4165122;28;20045;-60
2024/02/22 07:50:50;;;;;;;0.10;0.10;;;13.30;99.90;;;;;;4165869;28;20412;-67
2024/02/22 07:52:54;;;;;;;0.10;0.10;;;13.20;99.90;;;;;;4165274;28;20041;-62
2024/02/22 07:54:56;;;;;;;0.00;0.00;;;13.20;99.90;;;;;;4165062;28;20049;-59
2024/02/22 07:56:58;;;;;;;0.20;0.00;;;13.30;99.90;;;;;;4164400;28;20120;-59
2024/02/22 07:59:00;;;;;;;0.00;0.00;;;13.30;99.90;;;;;;4164346;28;20041;-60
2024/02/22 08:01:03;;;;;;;0.00;0.00;;;13.40;99.90;;;;;;4164428;28;20447;-59
2024/02/22 08:03:05;;;;;;;0.00;0.00;;;13.30;99.90;;;;;;4164461;28;20165;-61
2024/02/22 08:05:09;;;;;;;3.20;0.00;;;13.30;99.90;;;;;;4164796;28;20144;-64
2024/02/22 08:07:11;;;;;;;0.17;0.00;;;13.20;99.90;;;;;;4164919;28;20048;-64
2024/02/22 08:09:14;;;;;;;0.10;0.10;;;13.20;99.90;;;;;;4165153;28;20064;-60
2024/02/22 08:11:17;;;;;;;0.60;0.00;;;13.30;99.90;;;;;;4165431;28;20556;-64
2024/02/22 08:13:19;;;;;;;0.10;0.08;;;13.30;99.90;;;;;;4147220;28;20069;-59
2024/02/22 08:15:21;;;;;;;0.00;0.00;;;13.30;99.90;;;;;;4164453;28;20049;-60
2024/02/22 08:17:23;;;;;;;0.00;0.00;;;13.30;99.90;;;;;;4164159;28;20382;-62
2024/02/22 08:19:26;;;;;;;0.40;0.40;;;13.30;99.90;;;;;;4146774;28;20045;-59
2024/02/22 08:21:28;;;;;;;0.00;0.00;;;13.30;99.90;;;;;;4164503;28;20107;-59
2024/02/22 08:23:30;;;;;;;0.00;0.00;;;13.30;99.90;;;;;;4164015;28;20073;-59
2024/02/22 08:25:34;;;;;;;0.00;0.00;;;13.40;99.90;;;;;;4164193;28;20405;-58
2024/02/22 08:27:36;;;;;;;0.10;0.00;;;13.40;99.90;;;;;;4146247;28;20058;-59
2024/02/22 08:29:55;;;;;;;0.00;0.00;;;13.40;99.90;;;;;;4164201;28;20049;-58
2024/02/22 08:31:57;;;;;;;0.00;0.00;;;13.40;99.90;;;;;;4164044;28;20075;-59
2024/02/22 08:33:59;;;;;;;0.15;0.08;;;13.40;99.90;;;;;;4163859;28;20111;-60
2024/02/22 08:36:01;;;;;;;0.00;0.00;;;13.40;99.90;;;;;;4163968;28;20049;-59
2024/02/22 08:38:03;;;;;;;0.00;0.00;;;13.40;99.90;;;;;;4164205;28;20129;-58
2024/02/22 08:40:07;;;;;;;0.20;0.10;;;13.40;99.90;;;;;;4163965;28;20045;-59
2024/02/22 08:42:28;;;;;;;0.30;0.20;;;13.50;99.90;;;;;;4163876;28;20049;-59
2024/02/22 08:44:30;;;;;;;0.52;0.15;;;13.40;99.90;;;;;;4165027;28;20045;-60
2024/02/22 08:46:32;;;;;;;0.57;0.47;;;13.40;99.90;;;;;;4164953;28;20104;-58
2024/02/22 08:48:38;;;;;;;0.10;0.10;;;13.30;99.90;;;;;;4164142;28;20045;-59
2024/02/22 08:50:41;;;;;;;0.00;0.00;;;13.40;99.90;;;;;;4163765;28;20057;-58
2024/02/22 08:52:43;;;;;;;0.00;0.00;;;13.40;99.90;;;;;;4163875;28;20493;-60
2024/02/22 08:54:45;;;;;;;0.00;0.00;;;13.40;99.90;;;;;;4164057;28;20046;-59
2024/02/22 08:56:48;;;;;;;0.65;0.05;;;13.40;99.90;;;;;;4160892;28;20049;-59
2024/02/22 08:58:51;;;;;;;0.63;0.10;;;13.50;99.90;;;;;;4163898;28;20045;-58
2024/02/22 09:00:54;;;;;;;0.00;0.00;;;13.70;99.90;;;;;;4164949;28;20045;-58
2024/02/22 09:02:56;;;;;;;0.63;0.63;;;13.70;99.90;;;;;;4151679;28;20463;-58
2024/02/22 09:04:58;;;;;;;0.28;0.25;;;13.80;99.90;;;;;;4168939;28;20088;-59
2024/02/22 09:07:04;;;;;;;0.50;0.10;;;13.70;99.90;;;;;;4168772;28;20038;-63
2024/02/22 09:09:07;;;;;;;0.00;0.00;;;13.70;99.90;;;;;;4168826;28;20046;-58
2024/02/22 09:11:09;;;;;;;0.00;0.00;;;13.60;99.90;;;;;;4168840;28;20553;-59
2024/02/22 09:13:12;;;;;;;0.90;0.52;;;13.50;99.90;;;;;;4169562;28;20140;-59
2024/02/22 09:15:15;;;;;;;0.10;0.10;;;13.50;99.90;;;;;;4169569;28;20511;-58
2024/02/22 09:17:17;;;;;;;0.00;0.00;;;13.50;99.90;;;;;;4169454;28;20099;-58
2024/02/22 09:19:19;;;;;;;1.48;0.13;;;13.50;99.90;;;;;;4151656;28;20436;-57
2024/02/22 09:21:22;;;;;;;0.10;0.00;;;13.50;99.90;;;;;;4169141;28;20096;-58
2024/02/22 09:23:24;;;;;;;0.00;0.00;;;13.50;99.90;;;;;;4169028;28;20045;-58
2024/02/22 09:25:26;;;;;;;0.00;0.00;;;13.50;99.90;;;;;;4168793;28;20140;-59
2024/02/22 09:27:30;;;;;;;0.13;0.00;;;13.50;99.90;;;;;;4169377;28;20060;-59
2024/02/22 09:29:32;;;;;;;0.77;0.40;;;13.40;99.90;;;;;;4169242;28;20049;-59
2024/02/22 09:31:36;;;;;;;0.10;0.10;;;13.40;99.90;;;;;;4151713;28;20456;-59
2024/02/22 09:33:39;;;;;;;0.17;0.17;;;13.40;99.90;;;;;;4168976;28;20551;-58
2024/02/22 09:35:41;;;;;;;0.28;0.00;;;13.50;99.90;;;;;;4169041;28;20050;-57
2024/02/22 09:37:45;;;;;;;0.05;0.05;;;13.50;99.90;;;;;;4169732;28;20458;-62
2024/02/22 09:39:50;;;;;;;0.00;0.00;;;13.50;99.90;;;;;;4169111;28;20052;-60
2024/02/22 09:41:52;;;;;;;0.43;0.10;;;13.40;99.90;;;;;;4169710;28;20111;-69
2024/02/22 09:43:56;;;;;;;0.00;0.00;;;13.40;99.90;;;;;;4171045;28;20051;-60
2024/02/22 09:45:58;;;;;;;0.08;0.00;;;13.50;99.90;;;;;;4170718;28;20041;-58
2024/02/22 09:48:02;;;;;;;0.00;0.00;;;13.50;99.90;;;;;;4152968;28;20116;-61
2024/02/22 09:50:09;;;;;;;0.28;0.00;;;13.40;99.90;;;;;;4170087;28;20065;-60
2024/02/22 09:52:19;;;;;;;0.00;0.00;;;13.50;99.90;;;;;;4169839;28;20072;-60
2024/02/22 09:54:23;;;;;;;0.00;0.00;;;13.50;99.90;;;;;;4151417;28;20049;-58
2024/02/22 09:56:25;;;;;;;0.32;0.10;;;13.50;99.90;;;;;;4169074;28;20045;-57
2024/02/22 09:58:28;;;;;;;0.80;0.52;;;13.60;99.90;;;;;;4169240;28;20049;-59
2024/02/22 10:00:31;;;;;;;0.13;0.13;;;13.50;99.90;;;;;;4168867;28;20385;-57
2024/02/22 10:02:33;;;;;;;0.00;0.00;;;13.50;99.90;;;;;;4169071;28;20054;-58
2024/02/22 10:04:36;;;;;;;0.00;0.00;;;13.50;99.90;;;;;;4166179;28;20063;-58
2024/02/22 10:06:39;;;;;;;0.00;0.00;;;13.50;99.90;;;;;;4161682;28;20055;-58
2024/02/22 10:08:41;;;;;;;0.00;0.00;;;13.60;99.90;;;;;;4151918;28;20054;-58
2024/02/22 10:10:47;;;;;;;0.75;0.10;;;13.80;99.90;;;;;;4158799;28;20053;-59
2024/02/22 10:12:50;;;;;;;0.10;0.00;;;13.90;99.90;;;;;;4174280;28;20045;-58
2024/02/22 10:14:53;;;;;;;0.00;0.00;;;14.10;99.90;;;;;;4158125;28;20446;-58
2024/02/22 10:17:05;;;;;;;0.00;0.00;;;14.10;99.90;;;;;;4164673;28;20046;-59
2024/02/22 10:19:11;;;;;;;0.10;0.10;;;14.10;99.90;;;;;;4165221;28;20103;-58
2024/02/22 10:21:17;;;;;;;0.10;0.00;;;14.10;99.90;;;;;;4149975;28;20049;-59
2024/02/22 10:23:20;;;;;;;0.00;0.00;;;14.00;99.90;;;;;;4149531;28;20046;-57
2024/02/22 10:25:22;;;;;;;1.08;0.00;;;14.10;99.90;;;;;;4156949;28;20050;-59
2024/02/22 10:27:25;;;;;;;0.25;0.10;;;14.20;99.90;;;;;;4164097;28;20041;-61
2024/02/22 10:29:27;;;;;;;0.15;0.15;;;14.20;99.90;;;;;;4165803;28;20045;-60
2024/02/22 10:31:29;;;;;;;0.17;0.13;;;14.10;99.90;;;;;;4148837;28;20080;-58
2024/02/22 10:33:32;;;;;;;3.20;0.20;;;14.00;99.90;;;;;;4148591;28;20042;-59
2024/02/22 10:35:35;;;;;;;0.00;0.00;;;14.00;99.90;;;;;;4148322;28;20050;-59
2024/02/22 10:37:39;;;;;;;0.45;0.10;;;14.00;99.90;;;;;;4166089;28;20053;-60
2024/02/22 10:39:44;;;;;;;0.00;0.00;;;13.90;99.90;;;;;;4149654;28;20049;-59
2024/02/22 10:41:47;;;;;;;;;;;14.00;99.90;;;;;;4150585;28;20495;-60